Time;durP1;ratioP1;P1;durP2;ratioP2;P2;SDS_P1;SDS_P2;PMS_P1;PMS_P2;Temp;Humidity;BMP_temperature;BMP_pressure;BME280_temperature;BME280_humidity;BME280_pressure;Samples;Min_cycle;Max_cycle;Signal;HPM_P1;HPM_P2
2023/09/16 00:01:53;;;;;;;7.10;5.50;;;;;;;15.75;74.17;101037.03;5094707;28;20295;-74
2023/09/16 00:04:23;;;;;;;6.07;5.47;;;;;;;15.82;74.67;101032.56;5094648;28;20328;-74
2023/09/16 00:06:53;;;;;;;8.97;5.57;;;;;;;15.85;74.37;101029.47;5094352;28;20254;-74
2023/09/16 00:09:22;;;;;;;6.40;5.30;;;;;;;15.79;74.53;101028.34;5094629;28;20616;-74
2023/09/16 00:11:50;;;;;;;9.00;6.27;;;;;;;15.79;73.17;101024.84;5094270;28;20692;-74
2023/09/16 00:14:19;;;;;;;9.27;5.90;;;;;;;15.68;73.19;101024.25;5094391;28;20259;-74
2023/09/16 00:16:49;;;;;;;8.37;6.23;;;;;;;15.56;74.90;101016.81;5094476;28;20661;-74
2023/09/16 00:19:18;;;;;;;6.27;5.63;;;;;;;15.59;74.59;101017.28;5094504;28;20212;-74
2023/09/16 00:21:46;;;;;;;8.10;5.93;;;;;;;15.58;74.07;101012.09;5094053;28;20645;-74
2023/09/16 00:24:16;;;;;;;6.73;5.53;;;;;;;15.64;74.03;101009.47;5094481;28;20224;-74
2023/09/16 00:26:45;;;;;;;5.20;4.70;;;;;;;15.59;74.00;101005.66;5094301;28;20303;-74
2023/09/16 00:29:13;;;;;;;7.27;5.20;;;;;;;15.32;74.97;101007.09;5094287;28;20248;-74
2023/09/16 00:31:41;;;;;;;7.23;5.90;;;;;;;15.35;75.37;101004.03;5094235;28;20211;-74
2023/09/16 00:34:10;;;;;;;7.97;5.50;;;;;;;15.23;75.84;101002.81;5093870;28;20282;-74
2023/09/16 00:36:38;;;;;;;6.73;5.13;;;;;;;15.29;76.25;101003.94;5094285;28;20231;-74
2023/09/16 00:39:07;;;;;;;6.13;5.17;;;;;;;15.26;75.39;101004.31;5094303;28;20212;-74
2023/09/16 00:41:37;;;;;;;6.57;5.40;;;;;;;15.27;75.14;101005.97;5094033;28;20209;-74
2023/09/16 00:44:05;;;;;;;8.37;5.90;;;;;;;15.35;75.65;101004.03;5093057;28;20255;-74
2023/09/16 00:46:34;;;;;;;6.00;5.40;;;;;;;15.35;75.26;101004.03;5093970;28;20295;-74
2023/09/16 00:49:02;;;;;;;6.73;5.43;;;;;;;15.34;74.87;101007.75;5093924;28;20258;-74
2023/09/16 00:51:31;;;;;;;5.33;4.83;;;;;;;15.27;75.09;101006.81;5093867;28;20204;-74
2023/09/16 00:54:01;;;;;;;6.27;5.33;;;;;;;15.20;75.37;101000.50;5093780;28;20225;-74
2023/09/16 00:56:29;;;;;;;7.03;5.87;;;;;;;15.06;76.13;101007.53;5093756;28;20310;-74
2023/09/16 00:59:00;;;;;;;6.03;5.43;;;;;;;15.11;76.01;101004.25;5093769;28;20209;-74
2023/09/16 01:01:29;;;;;;;6.80;6.10;;;;;;;15.23;75.23;100994.72;5096387;28;20232;-73
2023/09/16 01:03:59;;;;;;;7.83;5.87;;;;;;;15.18;75.44;100989.03;5097356;28;20266;-73
2023/09/16 01:06:27;;;;;;;7.43;6.27;;;;;;;15.18;75.36;100994.44;5093413;28;20564;-73
2023/09/16 01:08:56;;;;;;;10.07;6.03;;;;;;;15.12;76.18;100997.88;5093376;28;20205;-73
2023/09/16 01:11:25;;;;;;;9.00;6.50;;;;;;;14.95;76.16;100993.66;5093436;28;20666;-73
2023/09/16 01:13:54;;;;;;;7.10;6.03;;;;;;;14.99;76.15;100978.78;5093703;28;20221;-73
2023/09/16 01:16:29;;;;;;;7.93;5.80;;;;;;;14.94;76.38;100983.88;5093223;28;20713;-73
2023/09/16 01:19:06;;;;;;;8.53;6.13;;;;;;;14.94;76.59;100991.97;5093660;28;20195;-73
2023/09/16 01:21:35;;;;;;;9.90;6.00;;;;;;;14.99;76.06;100993.09;5093535;28;20642;-73
2023/09/16 01:24:23;;;;;;;6.73;5.90;;;;;;;15.01;76.14;100993.75;5093498;28;20228;-73
2023/09/16 01:26:53;;;;;;;7.63;5.90;;;;;;;14.96;76.52;100987.25;5093798;28;20185;-73
2023/09/16 01:29:22;;;;;;;7.00;6.30;;;;;;;14.84;76.42;100991.38;5093499;28;20236;-73
2023/09/16 01:31:51;;;;;;;6.23;5.63;;;;;;;14.79;76.94;100991.09;5093425;28;20236;-73
2023/09/16 01:34:25;;;;;;;6.33;5.73;;;;;;;14.84;76.60;100994.91;5093228;28;20744;-73
2023/09/16 01:36:58;;;;;;;7.37;5.80;;;;;;;14.80;77.08;100988.22;5093397;28;20277;-73
2023/09/16 01:39:30;;;;;;;6.23;5.63;;;;;;;14.79;76.85;100988.41;5093465;28;20189;-73
2023/09/16 01:42:02;;;;;;;7.97;5.77;;;;;;;14.85;76.44;100982.28;5093395;28;20193;-73
2023/09/16 01:44:30;;;;;;;6.10;5.50;;;;;;;14.81;76.31;100978.28;5093356;28;20231;-73
2023/09/16 01:46:58;;;;;;;6.30;5.60;;;;;;;14.75;76.38;100979.00;5093299;28;20304;-73
2023/09/16 01:49:27;;;;;;;7.07;5.80;;;;;;;14.70;77.01;100976.84;5093349;28;20204;-73
2023/09/16 01:51:55;;;;;;;8.70;6.00;;;;;;;14.68;76.92;100979.72;5093311;28;20205;-73
2023/09/16 01:54:24;;;;;;;6.23;5.63;;;;;;;14.51;77.92;100975.50;5093179;28;20225;-73
2023/09/16 01:56:52;;;;;;;7.43;5.90;;;;;;;14.60;77.83;100971.69;5096291;28;20224;-73
2023/09/16 01:59:22;;;;;;;9.30;6.23;;;;;;;14.61;76.81;100973.38;5097193;28;20207;-73
2023/09/16 02:01:50;;;;;;;7.73;5.10;;;;;;;14.66;77.72;100972.81;5097069;28;20304;-73
2023/09/16 02:04:19;;;;;;;6.33;5.70;;;;;;;14.61;77.27;100968.00;5096953;28;20224;-73
2023/09/16 02:06:47;;;;;;;5.77;5.27;;;;;;;14.62;77.13;100969.66;5096685;28;20755;-73
2023/09/16 02:09:16;;;;;;;5.90;5.40;;;;;;;14.58;76.41;100979.16;5097002;28;20204;-73
2023/09/16 02:11:45;;;;;;;6.70;6.00;;;;;;;14.42;78.05;100971.16;5096632;28;20300;-73
2023/09/16 02:14:16;;;;;;;6.63;5.90;;;;;;;14.50;77.90;100972.97;5096772;28;20228;-73
2023/09/16 02:16:47;;;;;;;7.03;5.70;;;;;;;14.40;78.22;100975.91;5096451;28;20250;-73
2023/09/16 02:19:16;;;;;;;6.53;5.83;;;;;;;14.33;78.07;100968.69;5096852;28;20189;-73
2023/09/16 02:21:44;;;;;;;5.90;5.20;;;;;;;14.31;78.17;100976.94;5096706;28;20236;-73
2023/09/16 02:24:13;;;;;;;6.53;5.90;;;;;;;14.19;78.48;100962.22;5096787;28;20285;-73
2023/09/16 02:26:41;;;;;;;6.00;5.40;;;;;;;14.27;77.88;100964.84;5096612;28;20197;-73
2023/09/16 02:29:09;;;;;;;6.40;5.40;;;;;;;14.26;78.24;100968.56;5096262;28;20737;-73
2023/09/16 02:31:38;;;;;;;7.80;6.13;;;;;;;14.16;79.59;100967.94;5096529;28;20287;-73
2023/09/16 02:34:08;;;;;;;6.90;5.70;;;;;;;14.25;78.42;100972.25;5096083;28;20235;-73
2023/09/16 02:36:37;;;;;;;6.67;6.07;;;;;;;14.23;77.42;100971.59;5096253;28;20590;-73
2023/09/16 02:39:06;;;;;;;6.27;5.13;;;;;;;14.29;78.19;100978.97;5096647;28;20211;-74
2023/09/16 02:41:34;;;;;;;5.97;5.37;;;;;;;14.20;77.67;100975.50;5096320;28;20269;-74
2023/09/16 02:44:03;;;;;;;6.10;5.27;;;;;;;14.10;77.72;100968.66;5096490;28;20311;-74
2023/09/16 02:46:31;;;;;;;7.13;5.57;;;;;;;14.09;78.70;100975.06;5096228;28;20201;-74
2023/09/16 02:49:02;;;;;;;7.70;5.93;;;;;;;14.01;78.46;100972.41;5096165;28;20215;-74
2023/09/16 02:51:33;;;;;;;6.13;5.40;;;;;;;13.92;79.14;100970.78;5096202;28;20189;-74
2023/09/16 02:54:01;;;;;;;6.83;5.60;;;;;;;13.87;78.55;100974.00;5096093;28;20229;-74
2023/09/16 02:56:30;;;;;;;5.67;5.10;;;;;;;13.93;79.33;100970.63;5096019;28;20312;-74
2023/09/16 02:58:58;;;;;;;8.03;5.47;;;;;;;13.97;78.24;100973.78;5096297;28;20209;-74
2023/09/16 03:01:26;;;;;;;6.30;5.13;;;;;;;13.99;77.60;100966.38;5095651;28;20680;-75
2023/09/16 03:03:55;;;;;;;5.77;5.27;;;;;;;13.96;78.38;100966.72;5095873;28;20274;-75
2023/09/16 03:06:24;;;;;;;5.67;5.17;;;;;;;13.98;78.51;100970.06;5095665;28;20197;-75
2023/09/16 03:08:53;;;;;;;5.87;5.27;;;;;;;13.80;78.66;100961.44;5095139;28;20287;-75
2023/09/16 03:11:22;;;;;;;7.13;5.80;;;;;;;13.81;79.95;100960.41;5095446;28;20678;-75
2023/09/16 03:13:51;;;;;;;5.93;5.37;;;;;;;13.84;79.02;100963.59;5095638;28;20228;-75
2023/09/16 03:16:22;;;;;;;7.23;5.53;;;;;;;13.81;79.69;100971.16;5095848;28;20232;-75
2023/09/16 03:18:52;;;;;;;6.43;5.83;;;;;;;13.82;79.93;100973.69;5095644;28;20193;-74
2023/09/16 03:21:25;;;;;;;6.90;5.80;;;;;;;13.71;79.43;100974.91;5095527;28;20540;-74
2023/09/16 03:23:55;;;;;;;6.37;5.60;;;;;;;13.71;80.15;100964.16;5095515;28;20231;-74
2023/09/16 03:26:23;;;;;;;8.07;5.57;;;;;;;13.64;79.47;100963.19;5095453;28;20300;-74
2023/09/16 03:28:54;;;;;;;6.23;5.60;;;;;;;13.77;79.92;100967.16;5095107;28;20666;-74
2023/09/16 03:31:23;;;;;;;8.50;6.23;;;;;;;13.71;79.56;100964.16;5095355;28;20189;-74
2023/09/16 03:33:51;;;;;;;6.73;5.63;;;;;;;13.63;80.52;100955.28;5094900;28;20267;-74
2023/09/16 03:36:22;;;;;;;7.27;6.20;;;;;;;13.65;79.25;100953.25;5095249;28;20633;-74
2023/09/16 03:38:51;;;;;;;7.80;5.93;;;;;;;13.68;80.06;100953.75;5095324;28;20192;-74
2023/09/16 03:41:22;;;;;;;7.90;5.50;;;;;;;13.67;80.18;100952.06;5094841;28;20588;-74
2023/09/16 03:43:50;;;;;;;9.33;6.50;;;;;;;13.57;79.79;100953.28;5094759;28;20731;-74
2023/09/16 03:46:19;;;;;;;7.53;5.60;;;;;;;13.55;80.53;100955.31;5095092;28;20204;-74
2023/09/16 03:48:47;;;;;;;9.37;6.77;;;;;;;13.50;81.29;100957.69;5094858;28;20682;-74
2023/09/16 03:51:16;;;;;;;8.23;5.93;;;;;;;13.47;80.51;100950.81;5094747;28;20717;-74
2023/09/16 03:53:45;;;;;;;7.97;5.93;;;;;;;13.43;81.89;100944.09;5094517;28;20706;-74
2023/09/16 03:56:14;;;;;;;7.27;6.10;;;;;;;13.40;81.06;100944.44;5094922;28;20288;-73
2023/09/16 03:58:43;;;;;;;7.53;6.17;;;;;;;13.51;81.45;100946.75;5095276;28;20266;-74
2023/09/16 04:01:12;;;;;;;7.87;6.70;;;;;;;13.39;81.56;100948.13;5094850;28;20204;-74
2023/09/16 04:03:41;;;;;;;6.87;6.17;;;;;;;13.38;81.67;100945.63;5094926;28;20273;-74
2023/09/16 04:06:09;;;;;;;7.60;6.60;;;;;;;13.38;81.87;100946.47;5094768;28;20208;-74
2023/09/16 04:08:38;;;;;;;8.77;6.63;;;;;;;13.37;82.40;100934.03;5094670;28;20296;-75
2023/09/16 04:11:11;;;;;;;7.30;6.30;;;;;;;13.40;81.70;100933.69;5094576;28;20207;-73
2023/09/16 04:13:39;;;;;;;7.27;6.30;;;;;;;13.31;82.78;100934.72;5094489;28;20243;-74
2023/09/16 04:16:11;;;;;;;8.70;6.90;;;;;;;13.29;81.90;100931.34;5094747;28;20578;-74
2023/09/16 04:18:40;;;;;;;10.60;7.03;;;;;;;13.32;83.15;100932.88;5094409;28;20189;-74
2023/09/16 04:21:08;;;;;;;7.03;6.33;;;;;;;13.33;82.72;100935.38;5094421;28;20204;-74
2023/09/16 04:23:37;;;;;;;7.03;6.33;;;;;;;13.35;82.48;100935.22;5094340;28;20224;-74
2023/09/16 04:26:08;;;;;;;7.63;6.90;;;;;;;13.32;82.65;100936.38;5094326;28;20281;-74
2023/09/16 04:28:36;;;;;;;8.53;7.63;;;;;;;13.32;82.86;100936.38;5094340;28;20189;-74
2023/09/16 04:31:05;;;;;;;8.17;7.37;;;;;;;13.31;81.82;100934.72;5094255;28;20204;-74
2023/09/16 04:33:35;;;;;;;8.13;7.33;;;;;;;13.35;83.16;100928.00;5094219;28;20650;-73
2023/09/16 04:36:04;;;;;;;8.63;7.03;;;;;;;13.36;83.16;100921.59;5096756;28;20204;-73
2023/09/16 04:38:33;;;;;;;9.47;7.50;;;;;;;13.32;82.67;100920.25;5096437;28;20235;-74
2023/09/16 04:41:01;;;;;;;8.53;7.33;;;;;;;13.30;83.75;100926.81;5095528;28;20209;-74
2023/09/16 04:43:30;;;;;;;8.87;7.50;;;;;;;13.32;83.52;100935.56;5093952;28;20233;-74
2023/09/16 04:45:58;;;;;;;8.50;7.67;;;;;;;13.29;83.34;100925.97;5094141;28;20244;-74
2023/09/16 04:48:28;;;;;;;9.23;7.37;;;;;;;13.34;83.08;100934.38;5094037;28;20205;-74
2023/09/16 04:50:58;;;;;;;8.30;7.23;;;;;;;13.36;83.12;100931.50;5093975;28;20291;-74
2023/09/16 04:53:26;;;;;;;7.27;6.57;;;;;;;13.36;82.63;100929.66;5093840;28;20294;-74
2023/09/16 04:56:00;;;;;;;8.07;6.97;;;;;;;13.34;83.50;100938.91;5093870;28;20243;-74
2023/09/16 04:58:29;;;;;;;9.47;7.77;;;;;;;13.29;83.64;100938.63;5093703;28;20675;-74
2023/09/16 05:01:00;;;;;;;10.10;7.47;;;;;;;13.19;84.15;100939.63;5093488;28;20244;-74
2023/09/16 05:03:28;;;;;;;8.67;7.73;;;;;;;13.16;83.90;100939.97;5093795;28;20224;-74
2023/09/16 05:05:58;;;;;;;9.03;7.37;;;;;;;13.17;84.15;100938.13;5093735;28;20209;-73
2023/09/16 05:08:27;;;;;;;8.57;7.50;;;;;;;13.17;84.60;100932.75;5093376;28;20670;-73
2023/09/16 05:10:56;;;;;;;8.87;7.97;;;;;;;13.16;83.65;100931.06;5093356;28;20299;-74
2023/09/16 05:13:24;;;;;;;8.27;7.47;;;;;;;13.19;84.07;100939.63;5093549;28;20236;-74
2023/09/16 05:15:53;;;;;;;8.50;7.60;;;;;;;13.21;83.49;100947.53;5093579;28;20277;-74
2023/09/16 05:18:22;;;;;;;8.93;8.00;;;;;;;13.18;83.82;100945.19;5093520;28;20228;-74
2023/09/16 05:20:51;;;;;;;10.47;8.27;;;;;;;13.17;84.97;100938.13;5093227;28;20674;-74
2023/09/16 05:23:23;;;;;;;10.43;8.20;;;;;;;13.18;84.10;100934.44;5093455;28;20281;-74
2023/09/16 05:25:52;;;;;;;8.20;7.40;;;;;;;13.24;84.53;100940.97;5093575;28;20326;-74
2023/09/16 05:28:20;;;;;;;9.03;7.77;;;;;;;13.26;84.45;100937.09;5093916;28;20208;-74
2023/09/16 05:30:49;;;;;;;8.60;7.70;;;;;;;13.25;84.23;100934.59;5094930;28;20219;-74
2023/09/16 05:33:17;;;;;;;9.20;8.17;;;;;;;13.24;84.65;100933.75;5097141;28;20633;-74
2023/09/16 05:35:46;;;;;;;10.53;8.80;;;;;;;13.23;84.97;100939.28;5097591;28;20206;-74
2023/09/16 05:38:15;;;;;;;8.43;7.30;;;;;;;13.25;84.42;100940.81;5097356;28;20650;-74
2023/09/16 05:40:45;;;;;;;8.93;8.03;;;;;;;13.25;84.73;100927.38;5097490;28;20200;-75
2023/09/16 05:43:13;;;;;;;8.33;7.53;;;;;;;13.26;85.08;100925.50;5097059;28;20771;-74
2023/09/16 05:45:43;;;;;;;9.77;8.30;;;;;;;13.27;84.44;100929.88;5097063;28;20209;-74
2023/09/16 05:48:11;;;;;;;11.03;9.00;;;;;;;13.26;84.77;100925.50;5097365;28;20224;-74
2023/09/16 05:50:40;;;;;;;9.60;8.60;;;;;;;13.23;85.10;100942.81;5097302;28;20212;-74
2023/09/16 05:53:10;;;;;;;10.17;8.37;;;;;;;13.26;84.52;100936.25;5097407;28;20426;-74
2023/09/16 05:55:39;;;;;;;10.07;9.07;;;;;;;13.26;85.37;100928.19;5097680;28;20208;-74
2023/09/16 05:58:17;;;;;;;10.73;8.17;;;;;;;13.25;85.28;100935.44;5097450;28;20773;-73
2023/09/16 06:00:53;;;;;;;10.67;8.90;;;;;;;13.24;85.91;100933.75;5097081;28;20189;-74
2023/09/16 06:03:21;;;;;;;9.63;8.73;;;;;;;13.29;85.90;100938.63;5096737;28;20221;-74
2023/09/16 06:05:56;;;;;;;9.10;8.13;;;;;;;13.29;85.42;100933.22;5097028;28;20262;-74
2023/09/16 06:08:24;;;;;;;10.50;9.30;;;;;;;13.29;85.94;100944.81;5096713;28;20276;-74
2023/09/16 06:10:53;;;;;;;11.20;9.60;;;;;;;13.29;85.79;100947.50;5096918;28;20204;-74
2023/09/16 06:13:23;;;;;;;9.97;8.73;;;;;;;13.32;85.70;100947.16;5096787;28;20316;-74
2023/09/16 06:15:52;;;;;;;9.87;8.87;;;;;;;13.31;86.45;100948.19;5097911;28;20204;-74
2023/09/16 06:18:20;;;;;;;9.33;8.20;;;;;;;13.34;86.09;100937.06;5096445;28;20656;-74
2023/09/16 06:20:49;;;;;;;10.73;9.63;;;;;;;13.36;86.28;100942.25;5096478;28;20693;-74
2023/09/16 06:23:17;;;;;;;10.27;9.33;;;;;;;13.39;86.89;100936.56;5096628;28;20251;-74
2023/09/16 06:25:46;;;;;;;12.60;9.73;;;;;;;13.42;86.84;100933.53;5096655;28;20247;-74
2023/09/16 06:28:14;;;;;;;10.63;8.77;;;;;;;13.44;86.95;100928.78;5096646;28;20279;-74
2023/09/16 06:30:44;;;;;;;10.97;9.87;;;;;;;13.44;87.22;100935.00;5096601;28;20251;-74
2023/09/16 06:33:13;;;;;;;11.73;8.57;;;;;;;13.47;86.98;100929.28;5096333;28;20604;-74
2023/09/16 06:35:41;;;;;;;10.47;8.93;;;;;;;13.50;87.06;100939.69;5096526;28;20251;-74
2023/09/16 06:38:10;;;;;;;9.97;9.00;;;;;;;13.53;87.49;100935.81;5096394;28;20260;-74
2023/09/16 06:40:39;;;;;;;10.63;9.47;;;;;;;13.54;87.45;100938.34;5096409;28;20250;-74
2023/09/16 06:43:07;;;;;;;9.50;8.50;;;;;;;13.57;87.22;100937.13;5094912;28;20225;-74
2023/09/16 06:45:36;;;;;;;10.53;9.20;;;;;;;13.60;88.20;100932.25;5096271;28;20262;-74
2023/09/16 06:48:08;;;;;;;9.90;9.00;;;;;;;13.62;87.43;100932.94;5096286;28;20254;-74
2023/09/16 06:50:38;;;;;;;10.57;8.97;;;;;;;13.65;88.44;100937.97;5095945;28;20189;-74
2023/09/16 06:53:06;;;;;;;12.67;10.07;;;;;;;13.69;89.05;100947.38;5096145;28;20220;-74
2023/09/16 06:55:35;;;;;;;10.87;9.70;;;;;;;13.72;89.01;100940.78;5096203;28;20200;-74
2023/09/16 06:58:04;;;;;;;10.63;9.53;;;;;;;13.75;89.42;100931.50;5096011;28;20231;-74
2023/09/16 07:00:33;;;;;;;10.43;9.23;;;;;;;13.80;89.55;100931.84;5096055;28;20678;-74
2023/09/16 07:03:03;;;;;;;10.47;9.47;;;;;;;13.84;88.94;100927.75;5095842;28;20323;-74
2023/09/16 07:05:33;;;;;;;9.67;8.77;;;;;;;13.88;89.17;100940.69;5095939;28;20593;-75
2023/09/16 07:08:01;;;;;;;9.77;8.77;;;;;;;13.94;89.10;100933.78;5095922;28;20291;-75
2023/09/16 07:10:30;;;;;;;10.13;9.00;;;;;;;13.97;88.87;100928.84;5095871;28;20201;-75
2023/09/16 07:12:58;;;;;;;11.27;8.90;;;;;;;14.03;88.20;100940.78;5095728;28;20277;-75
2023/09/16 07:15:27;;;;;;;11.77;9.23;;;;;;;14.07;88.18;100942.09;5095386;28;20569;-75
2023/09/16 07:17:55;;;;;;;9.30;8.23;;;;;;;14.12;87.35;100935.16;5095598;28;20300;-75
2023/09/16 07:20:25;;;;;;;9.00;8.10;;;;;;;14.17;87.58;100931.94;5095598;28;20208;-75
2023/09/16 07:22:56;;;;;;;10.43;8.47;;;;;;;14.28;87.52;100928.81;5095544;28;20325;-75
2023/09/16 07:25:24;;;;;;;10.33;9.33;;;;;;;14.34;87.05;100927.31;5095307;28;20192;-75
2023/09/16 07:27:53;;;;;;;10.50;9.20;;;;;;;14.39;87.26;100936.50;5095502;28;20250;-75
2023/09/16 07:30:24;;;;;;;10.13;8.27;;;;;;;14.42;87.93;100938.84;5095195;28;20635;-75
2023/09/16 07:32:52;;;;;;;11.07;9.03;;;;;;;14.46;87.79;100936.63;5094848;28;20286;-75
2023/09/16 07:35:21;;;;;;;9.73;8.83;;;;;;;14.49;88.28;100925.47;5095432;28;20200;-75
2023/09/16 07:37:51;;;;;;;8.77;7.87;;;;;;;14.64;87.14;100935.28;5095548;28;20291;-75
2023/09/16 07:40:21;;;;;;;9.10;7.97;;;;;;;14.66;87.74;100927.84;5094866;28;20753;-75
2023/09/16 07:42:49;;;;;;;11.20;8.33;;;;;;;14.78;86.72;100935.50;5095174;28;20256;-75
2023/09/16 07:45:18;;;;;;;8.77;7.87;;;;;;;14.83;88.01;100933.13;5095182;28;20236;-75
2023/09/16 07:47:47;;;;;;;10.23;8.50;;;;;;;14.89;87.90;100932.38;5095099;28;20255;-74
2023/09/16 07:50:16;;;;;;;9.90;8.27;;;;;;;14.98;86.86;100934.81;5095047;28;20197;-74
2023/09/16 07:52:44;;;;;;;9.00;8.10;;;;;;;15.05;86.52;100940.28;5094789;28;20224;-75
2023/09/16 07:55:13;;;;;;;7.97;6.83;;;;;;;15.15;85.87;100932.78;5094503;28;20636;-74
2023/09/16 07:57:43;;;;;;;8.27;7.03;;;;;;;15.27;85.99;100936.69;5094666;28;20213;-74
2023/09/16 08:00:12;;;;;;;9.17;7.63;;;;;;;15.32;85.62;100936.97;5094820;28;20274;-74
2023/09/16 08:02:41;;;;;;;7.70;7.00;;;;;;;15.36;86.73;100938.25;5094719;28;20224;-74
2023/09/16 08:05:09;;;;;;;8.83;7.03;;;;;;;15.50;85.22;100932.06;5094824;28;20209;-74
2023/09/16 08:07:38;;;;;;;7.17;6.47;;;;;;;15.57;85.10;100938.38;5094770;28;20212;-74
2023/09/16 08:10:08;;;;;;;9.07;7.13;;;;;;;15.67;85.67;100944.31;5094229;28;20698;-70
2023/09/16 08:12:36;;;;;;;7.70;6.90;;;;;;;15.73;86.06;100943.56;5094259;28;20722;-71
2023/09/16 08:15:07;;;;;;;7.40;6.70;;;;;;;15.85;84.13;100945.78;5094502;28;20258;-71
2023/09/16 08:17:37;;;;;;;6.97;6.37;;;;;;;15.88;84.93;100945.41;5094526;28;20193;-71
2023/09/16 08:20:07;;;;;;;8.23;6.67;;;;;;;16.02;82.99;100952.63;5094421;28;20315;-71
2023/09/16 08:22:36;;;;;;;9.60;6.57;;;;;;;16.15;83.52;100947.38;5094354;28;20282;-71
2023/09/16 08:25:06;;;;;;;7.17;6.47;;;;;;;16.30;81.29;100950.03;5094209;28;20237;-71
2023/09/16 08:27:35;;;;;;;7.03;6.33;;;;;;;16.34;82.21;100952.13;5094353;28;20271;-72
2023/09/16 08:30:05;;;;;;;8.07;5.97;;;;;;;16.42;81.73;100943.91;5094304;28;20224;-72
2023/09/16 08:32:36;;;;;;;7.83;6.37;;;;;;;16.62;80.05;100946.81;5094258;28;20232;-71
2023/09/16 08:35:05;;;;;;;6.70;6.00;;;;;;;16.68;81.82;100946.88;5094160;28;20190;-71
2023/09/16 08:37:34;;;;;;;9.57;6.80;;;;;;;16.71;81.50;100941.06;5094321;28;20288;-71
2023/09/16 08:40:03;;;;;;;7.33;6.20;;;;;;;16.79;82.54;100950.91;5094466;28;20255;-71
2023/09/16 08:42:37;;;;;;;11.10;6.13;;;;;;;16.93;81.33;100939.19;5093454;28;20649;-72
2023/09/16 08:45:13;;;;;;;9.60;6.80;;;;;;;17.09;79.69;100941.56;5094091;28;20192;-72
2023/09/16 08:47:46;;;;;;;9.27;6.40;;;;;;;17.23;79.33;100931.69;5093863;28;20275;-72
2023/09/16 08:50:18;;;;;;;8.63;6.27;;;;;;;17.31;80.58;100938.81;5094086;28;20189;-71
2023/09/16 08:52:50;;;;;;;7.47;6.50;;;;;;;17.37;81.10;100938.00;5094424;28;20224;-71
2023/09/16 08:55:20;;;;;;;8.03;7.20;;;;;;;17.48;78.93;100932.88;5093917;28;20246;-71
2023/09/16 08:57:52;;;;;;;8.00;6.90;;;;;;;17.52;80.87;100936.00;5093901;28;20192;-72
2023/09/16 09:00:22;;;;;;;6.93;6.17;;;;;;;17.69;78.68;100938.22;5093813;28;20209;-72
2023/09/16 09:02:52;;;;;;;7.67;6.90;;;;;;;17.83;77.43;100932.84;5093718;28;20294;-72
2023/09/16 09:05:24;;;;;;;6.53;5.93;;;;;;;17.85;79.61;100936.19;5093134;28;20209;-72
2023/09/16 09:07:55;;;;;;;6.83;6.13;;;;;;;17.97;77.58;100937.28;5093748;28;20254;-72
2023/09/16 09:10:23;;;;;;;11.10;6.57;;;;;;;18.04;77.93;100938.13;5093702;28;20297;-72
2023/09/16 09:12:52;;;;;;;6.80;5.70;;;;;;;18.03;79.67;100941.88;5093510;28;20263;-72
2023/09/16 09:15:23;;;;;;;7.23;6.53;;;;;;;18.12;79.35;100929.81;5093339;28;20290;-72
2023/09/16 09:17:59;;;;;;;7.73;5.37;;;;;;;18.18;80.03;100935.22;5093299;28;20195;-72
2023/09/16 09:20:28;;;;;;;6.03;5.20;;;;;;;18.32;77.98;100933.41;5093436;28;20255;-71
2023/09/16 09:22:59;;;;;;;10.30;5.30;;;;;;;18.35;78.29;100933.00;5093728;28;20225;-71
2023/09/16 09:25:28;;;;;;;7.80;5.20;;;;;;;18.54;75.29;100926.78;5093591;28;20227;-71
2023/09/16 09:27:58;;;;;;;6.27;5.03;;;;;;;18.56;77.47;100929.31;5093783;28;20288;-72
2023/09/16 09:30:28;;;;;;;7.30;4.67;;;;;;;18.82;72.92;100923.88;5093498;28;20269;-72
2023/09/16 09:32:56;;;;;;;6.77;5.30;;;;;;;18.99;71.85;100929.69;5092970;28;20229;-71
2023/09/16 09:35:26;;;;;;;7.23;4.40;;;;;;;19.15;70.90;100919.22;5093410;28;20207;-71
2023/09/16 09:37:54;;;;;;;5.47;4.43;;;;;;;19.31;68.31;100933.41;5093153;28;20565;-71
2023/09/16 09:40:23;;;;;;;4.67;4.13;;;;;;;19.42;70.60;100932.78;5093293;28;20322;-71
2023/09/16 09:42:53;;;;;;;6.83;4.50;;;;;;;19.41;69.21;100929.25;5093229;28;20311;-71
2023/09/16 09:45:24;;;;;;;4.93;4.00;;;;;;;19.58;68.89;100929.59;5092975;28;20607;-71
2023/09/16 09:47:54;;;;;;;5.03;4.10;;;;;;;19.55;69.64;100922.72;5092749;28;20674;-71
2023/09/16 09:50:24;;;;;;;4.80;3.93;;;;;;;19.57;70.60;100928.75;5093271;28;20200;-71
2023/09/16 09:52:54;;;;;;;4.50;3.60;;;;;;;19.65;70.35;100936.69;5093109;28;20243;-72
2023/09/16 09:55:24;;;;;;;5.07;3.77;;;;;;;19.74;69.45;100934.53;5094069;28;20193;-71
2023/09/16 09:57:54;;;;;;;5.97;4.07;;;;;;;19.93;67.27;100935.50;5093536;28;20291;-71
2023/09/16 10:00:24;;;;;;;4.03;3.60;;;;;;;20.08;68.94;100933.31;5093318;28;20220;-71
2023/09/16 10:02:54;;;;;;;4.40;4.00;;;;;;;20.16;66.76;100927.66;5092834;28;20742;-71
2023/09/16 10:05:24;;;;;;;4.60;3.40;;;;;;;20.30;64.65;100915.66;5093201;28;20240;-71
2023/09/16 10:07:54;;;;;;;4.73;3.87;;;;;;;20.46;65.65;100922.44;5092779;28;20300;-71
2023/09/16 10:10:24;;;;;;;6.23;3.50;;;;;;;20.56;64.92;100911.91;5093359;28;20201;-71
2023/09/16 10:12:55;;;;;;;6.37;3.73;;;;;;;20.65;64.82;100916.03;5092691;28;20911;-71
2023/09/16 10:15:25;;;;;;;4.20;3.80;;;;;;;20.78;62.78;100912.38;5093106;28;20193;-71
2023/09/16 10:17:56;;;;;;;4.73;3.90;;;;;;;20.87;62.67;100905.56;5096093;28;20295;-71
2023/09/16 10:20:25;;;;;;;3.60;3.30;;;;;;;20.98;61.41;100910.28;5096767;28;20209;-72
2023/09/16 10:22:54;;;;;;;3.80;3.30;;;;;;;21.11;62.05;100911.03;5096633;28;20319;-71
2023/09/16 10:25:24;;;;;;;8.87;3.77;;;;;;;21.26;61.25;100915.28;5096630;28;20201;-72
2023/09/16 10:27:57;;;;;;;7.43;5.40;;;;;;;21.32;63.19;100908.91;5096645;28;20254;-71
2023/09/16 10:30:26;;;;;;;4.80;3.30;;;;;;;21.45;61.54;100909.59;5096642;28;20181;-71
2023/09/16 10:32:58;;;;;;;4.07;3.63;;;;;;;21.56;62.93;100902.56;5096272;28;20232;-71
2023/09/16 10:35:28;;;;;;;4.70;3.57;;;;;;;21.66;59.37;100891.97;5096551;28;20185;-71
2023/09/16 10:37:59;;;;;;;8.90;4.20;;;;;;;21.72;61.25;100893.75;5096445;28;20215;-71
2023/09/16 10:40:28;;;;;;;5.40;4.00;;;;;;;21.78;61.11;100897.47;5096404;28;20291;-71
2023/09/16 10:42:58;;;;;;;4.30;3.57;;;;;;;21.87;62.29;100894.19;5096015;28;20729;-71
2023/09/16 10:45:27;;;;;;;4.47;3.87;;;;;;;21.99;60.41;100905.16;5096308;28;20216;-71
2023/09/16 10:47:59;;;;;;;4.67;3.70;;;;;;;22.16;60.44;100892.53;5096243;28;20208;-71
2023/09/16 10:50:30;;;;;;;4.47;3.17;;;;;;;22.29;57.08;100897.00;5096285;28;20186;-71
2023/09/16 10:53:05;;;;;;;4.53;3.50;;;;;;;22.41;56.34;100895.09;5096137;28;20253;-71
2023/09/16 10:55:41;;;;;;;4.33;3.93;;;;;;;22.59;57.44;100893.13;5096151;28;20208;-71
2023/09/16 10:58:15;;;;;;;4.33;3.73;;;;;;;22.64;56.27;100890.50;5096623;28;20219;-71
2023/09/16 11:00:53;;;;;;;5.57;3.40;;;;;;;22.76;56.02;100895.19;5096568;28;20219;-71
2023/09/16 11:03:30;;;;;;;5.17;3.70;;;;;;;22.79;58.07;100892.81;5095973;28;20232;-72
2023/09/16 11:06:01;;;;;;;4.27;3.40;;;;;;;22.87;57.44;100887.03;5096033;28;20189;-71
2023/09/16 11:08:30;;;;;;;3.13;2.90;;;;;;;22.91;56.42;100884.66;5095942;28;20205;-71
2023/09/16 11:10:58;;;;;;;3.53;3.20;;;;;;;23.07;55.98;100892.13;5095493;28;20295;-71
2023/09/16 11:13:29;;;;;;;6.27;3.47;;;;;;;23.16;55.71;100883.31;5095978;28;20320;-71
2023/09/16 11:15:59;;;;;;;4.10;3.70;;;;;;;23.25;57.35;100881.88;5095753;28;20193;-71
2023/09/16 11:18:29;;;;;;;5.47;3.20;;;;;;;23.32;52.65;100879.03;5096002;28;20240;-71
2023/09/16 11:20:58;;;;;;;5.00;3.43;;;;;;;23.44;53.61;100884.47;5095799;28;20229;-72
2023/09/16 11:23:28;;;;;;;4.10;3.33;;;;;;;23.49;52.23;100876.41;5095785;28;20271;-72
2023/09/16 11:25:58;;;;;;;3.43;3.13;;;;;;;23.61;55.36;100883.50;5095774;28;20201;-71
2023/09/16 11:28:26;;;;;;;3.87;3.10;;;;;;;23.67;53.74;100878.94;5094337;28;20671;-71
2023/09/16 11:30:56;;;;;;;4.37;2.97;;;;;;;23.71;54.33;100872.75;5095070;28;20578;-65
2023/09/16 11:33:31;;;;;;;6.37;5.07;;;;;;;23.80;53.04;100869.66;5095029;28;20294;-72
2023/09/16 11:36:14;;;;;;;3.40;3.03;;;;;;;23.90;51.17;100869.84;5095031;28;20211;-71